Time;durP1;ratioP1;P1;durP2;ratioP2;P2;SDS_P1;SDS_P2;PMS_P1;PMS_P2;Temp;Humidity;BMP_temperature;BMP_pressure;BME280_temperature;BME280_humidity;BME280_pressure;Samples;Min_cycle;Max_cycle;Signal;HPM_P1;HPM_P2
2022/02/24 03:46:24;;;;;;;16.70;6.18;;;1.50;93.00;;;;;;6274849;22;20022;-80
2022/02/24 03:48:50;;;;;;;14.77;5.43;;;1.50;92.60;;;;;;6245254;22;20006;-80
2022/02/24 03:51:17;;;;;;;16.85;4.95;;;1.50;92.10;;;;;;6295725;22;20056;-80
2022/02/24 03:53:43;;;;;;;12.73;4.63;;;1.50;92.10;;;;;;6296036;22;20082;-81
2022/02/24 03:56:09;;;;;;;13.98;4.88;;;1.40;91.90;;;;;;6270392;22;20070;-81
2022/02/24 03:58:35;;;;;;;16.13;6.55;;;1.40;91.80;;;;;;6270316;22;20007;-80
2022/02/24 04:01:01;;;;;;;16.58;5.65;;;1.30;91.90;;;;;;6270624;22;20040;-81
2022/02/24 04:03:27;;;;;;;11.88;5.03;;;1.30;92.00;;;;;;6296272;22;20047;-81
2022/02/24 04:05:53;;;;;;;17.50;6.13;;;1.20;91.70;;;;;;6270297;22;20221;-80
2022/02/24 04:08:20;;;;;;;13.45;5.38;;;1.20;91.80;;;;;;6270550;22;20206;-81
2022/02/24 04:10:46;;;;;;;13.43;5.07;;;1.10;91.60;;;;;;6321561;22;20007;-81
2022/02/24 04:13:12;;;;;;;20.17;6.97;;;1.10;91.70;;;;;;6295729;22;20076;-81
2022/02/24 04:15:38;;;;;;;16.58;6.38;;;1.10;92.50;;;;;;6270233;22;20011;-81
2022/02/24 04:18:06;;;;;;;13.70;5.68;;;1.10;92.80;;;;;;6270825;22;20026;-81
2022/02/24 04:20:32;;;;;;;13.60;5.85;;;1.00;92.40;;;;;;6295801;22;20309;-81
2022/02/24 04:22:58;;;;;;;14.23;6.03;;;1.00;92.20;;;;;;6295830;22;20014;-81
2022/02/24 04:25:24;;;;;;;13.57;5.97;;;1.00;92.10;;;;;;6244984;22;20010;-81
2022/02/24 04:27:51;;;;;;;18.33;6.03;;;1.00;92.10;;;;;;6270722;22;20055;-81
2022/02/24 04:30:18;;;;;;;;;;;0.90;92.00;;;;;;6270762;22;20010;-81
2022/02/24 04:32:44;;;;;;;11.25;5.70;;;0.90;92.00;;;;;;6321258;22;19903;-80
2022/02/24 04:35:11;;;;;;;16.13;5.43;;;0.90;92.20;;;;;;6295746;22;20044;-80
2022/02/24 04:37:36;;;;;;;15.05;6.40;;;0.80;91.90;;;;;;6295753;22;20306;-81
2022/02/24 04:40:05;;;;;;;22.92;8.43;;;0.80;92.10;;;;;;6270145;22;20007;-81
2022/02/24 04:42:31;;;;;;;21.55;8.18;;;0.80;92.40;;;;;;6295539;22;20015;-81
2022/02/24 04:44:57;;;;;;;13.43;5.70;;;0.80;93.00;;;;;;6295447;22;20073;-80
2022/02/24 04:47:24;;;;;;;18.45;5.68;;;0.80;93.20;;;;;;6344888;22;20069;-80
2022/02/24 04:49:50;;;;;;;16.88;5.55;;;0.80;93.20;;;;;;6378977;22;20297;-80
2022/02/24 04:52:16;;;;;;;14.07;5.65;;;0.90;93.10;;;;;;6327326;22;20009;-81
2022/02/24 04:54:42;;;;;;;16.73;5.82;;;0.90;93.10;;;;;;6352927;22;19994;-80
2022/02/24 04:57:07;;;;;;;9.13;4.90;;;0.90;93.20;;;;;;6300467;22;20101;-80
2022/02/24 04:59:33;;;;;;;13.68;5.80;;;0.90;93.60;;;;;;6352643;22;20002;-80
2022/02/24 05:01:59;;;;;;;17.45;5.18;;;0.90;93.90;;;;;;6352800;22;20056;-80
2022/02/24 05:04:24;;;;;;;17.15;5.05;;;1.00;94.20;;;;;;6380851;22;20006;-80
2022/02/24 05:06:50;;;;;;;16.25;5.43;;;1.00;94.50;;;;;;6301786;22;20081;-80
2022/02/24 05:09:16;;;;;;;15.20;5.15;;;1.10;94.60;;;;;;6328197;22;20033;-79
2022/02/24 05:11:42;;;;;;;16.48;4.88;;;1.20;94.10;;;;;;6302740;22;19998;-82
2022/02/24 05:14:09;;;;;;;15.13;5.17;;;1.20;94.00;;;;;;6355459;22;20075;-81
2022/02/24 05:16:35;;;;;;;11.70;4.40;;;1.30;94.90;;;;;;6394136;22;20240;-81
2022/02/24 05:19:01;;;;;;;17.13;4.93;;;1.30;94.40;;;;;;6320129;22;20005;-81
2022/02/24 05:21:26;;;;;;;16.17;4.13;;;1.30;94.40;;;;;;6370639;22;20054;-81
2022/02/24 05:23:52;;;;;;;14.95;4.38;;;1.40;94.70;;;;;;6372264;22;20006;-81
2022/02/24 05:26:19;;;;;;;17.25;4.80;;;1.40;94.30;;;;;;6371902;22;20010;-81
2022/02/24 05:28:45;;;;;;;13.65;4.32;;;1.40;94.10;;;;;;6397246;22;20009;-81
2022/02/24 05:31:11;;;;;;;9.40;4.10;;;1.40;93.80;;;;;;6319158;22;20017;-81
2022/02/24 05:33:37;;;;;;;13.05;4.95;;;1.40;93.80;;;;;;6396474;22;20010;-81
2022/02/24 05:36:03;;;;;;;15.20;4.90;;;1.40;93.60;;;;;;6329060;22;20033;-81
2022/02/24 05:38:29;;;;;;;16.48;5.57;;;1.40;93.80;;;;;;6326122;22;20021;-79
2022/02/24 05:40:56;;;;;;;11.45;4.97;;;1.40;94.00;;;;;;6378579;22;20003;-79
2022/02/24 05:43:22;;;;;;;16.92;6.00;;;1.40;94.30;;;;;;6378608;22;20002;-80
2022/02/24 05:45:48;;;;;;;14.15;4.25;;;1.50;94.20;;;;;;6381118;22;20013;-79
2022/02/24 05:48:13;;;;;;;16.98;4.32;;;1.50;93.90;;;;;;6327884;22;20006;-80
2022/02/24 05:50:39;;;;;;;18.98;4.57;;;1.60;93.60;;;;;;6328310;22;20022;-80
2022/02/24 05:53:06;;;;;;;18.23;5.90;;;1.60;93.20;;;;;;6327993;22;20079;-80
2022/02/24 05:55:33;;;;;;;11.93;4.88;;;1.60;93.20;;;;;;6327986;22;20392;-80
2022/02/24 05:57:59;;;;;;;17.63;5.20;;;1.60;92.90;;;;;;6354116;22;19998;-79
2022/02/24 06:00:25;;;;;;;14.73;5.47;;;1.60;93.10;;;;;;6328553;22;20274;-80
2022/02/24 06:02:51;;;;;;;15.57;4.80;;;1.60;93.10;;;;;;6327997;22;20006;-81
2022/02/24 06:05:17;;;;;;;17.43;4.43;;;1.60;93.20;;;;;;6328262;22;20030;-81
2022/02/24 06:07:44;;;;;;;15.98;4.72;;;1.60;93.10;;;;;;6380676;22;20015;-81
2022/02/24 06:10:11;;;;;;;19.58;4.97;;;1.60;93.00;;;;;;6353822;22;20053;-80
2022/02/24 06:12:37;;;;;;;18.40;4.35;;;1.70;92.70;;;;;;6302148;22;20010;-80
2022/02/24 06:15:08;;;;;;;10.82;3.65;;;1.70;93.00;;;;;;6327955;22;20004;-81
2022/02/24 06:17:35;;;;;;;15.00;3.88;;;1.80;92.60;;;;;;6327935;22;20006;-80
2022/02/24 06:20:01;;;;;;;13.75;4.32;;;1.80;92.50;;;;;;6302411;22;20201;-80
2022/02/24 06:22:27;;;;;;;18.52;4.32;;;1.80;92.60;;;;;;6328062;22;20298;-81
2022/02/24 06:24:53;;;;;;;7.90;3.40;;;1.80;92.60;;;;;;6353828;22;20088;-80
2022/02/24 06:27:19;;;;;;;10.93;4.10;;;1.90;92.70;;;;;;6327719;22;20010;-80
2022/02/24 06:29:46;;;;;;;12.50;4.00;;;2.00;92.70;;;;;;6327719;22;20014;-80
2022/02/24 06:32:16;;;;;;;13.68;3.50;;;2.10;92.70;;;;;;6302528;22;20095;-80
2022/02/24 06:34:43;;;;;;;9.95;4.35;;;2.20;92.50;;;;;;6328231;22;20002;-81
2022/02/24 06:37:09;;;;;;;15.82;4.75;;;2.30;92.40;;;;;;6353474;22;20013;-80
2022/02/24 06:39:35;;;;;;;12.40;4.13;;;2.40;92.20;;;;;;6353355;22;20006;-80
2022/02/24 06:42:01;;;;;;;12.40;4.30;;;2.50;92.00;;;;;;6327564;22;20005;-80
2022/02/24 06:44:27;;;;;;;10.50;3.95;;;2.70;92.00;;;;;;6327501;22;20073;-79
2022/02/24 06:46:53;;;;;;;13.32;4.47;;;2.80;91.80;;;;;;6340886;22;20209;-79
2022/02/24 06:49:19;;;;;;;15.18;4.97;;;2.80;91.60;;;;;;6352604;22;20021;-80
2022/02/24 06:51:45;;;;;;;15.60;4.15;;;2.90;91.40;;;;;;6352716;22;20011;-80
2022/02/24 06:54:11;;;;;;;14.10;4.93;;;3.00;91.30;;;;;;6378749;22;20011;-79
2022/02/24 06:56:37;;;;;;;11.48;4.78;;;3.10;91.20;;;;;;6300576;22;19995;-80
2022/02/24 06:59:03;;;;;;;11.35;3.90;;;3.20;91.00;;;;;;6378725;22;20343;-80
2022/02/24 07:01:30;;;;;;;15.53;4.43;;;3.30;90.80;;;;;;6380530;22;20014;-80
2022/02/24 07:03:56;;;;;;;15.85;5.97;;;3.40;90.80;;;;;;6326917;22;20010;-80
2022/02/24 07:06:22;;;;;;;16.23;5.05;;;3.50;90.70;;;;;;6326837;22;20069;-80
2022/02/24 07:08:48;;;;;;;19.08;4.70;;;3.70;90.60;;;;;;6352423;22;20025;-80
2022/02/24 07:11:14;;;;;;;25.15;5.55;;;3.70;90.50;;;;;;6352450;22;20074;-79
2022/02/24 07:13:39;;;;;;;17.00;5.05;;;3.80;90.30;;;;;;6378803;22;20002;-79
2022/02/24 07:16:05;;;;;;;20.10;4.30;;;3.90;90.20;;;;;;6300182;22;20068;-79
2022/02/24 07:18:31;;;;;;;12.95;4.88;;;4.00;90.10;;;;;;6352091;22;20094;-79
2022/02/24 07:20:57;;;;;;;17.85;4.75;;;4.10;89.80;;;;;;6352603;22;20017;-79
2022/02/24 07:23:26;;;;;;;15.35;3.95;;;4.20;90.00;;;;;;6378583;22;20018;-80
2022/02/24 07:25:53;;;;;;;16.98;4.65;;;4.30;89.80;;;;;;6378445;22;20012;-80
2022/02/24 07:28:20;;;;;;;22.58;5.53;;;4.50;89.20;;;;;;6352369;22;20018;-79
2022/02/24 07:30:46;;;;;;;16.77;5.05;;;4.70;88.40;;;;;;6352519;22;20190;-80
2022/02/24 07:33:12;;;;;;;17.40;5.20;;;4.80;88.10;;;;;;6352152;22;20010;-79
2022/02/24 07:35:38;;;;;;;12.00;4.38;;;4.90;87.70;;;;;;6351856;22;20044;-81
2022/02/24 07:38:04;;;;;;;23.73;5.82;;;5.00;87.80;;;;;;6352358;22;20002;-80
2022/02/24 07:40:29;;;;;;;11.38;4.35;;;5.10;88.10;;;;;;6326289;22;20015;-80
2022/02/24 07:42:55;;;;;;;21.88;5.18;;;5.30;87.90;;;;;;6326031;22;20395;-80
2022/02/24 07:45:21;;;;;;;21.15;5.70;;;5.50;88.30;;;;;;6352025;22;20010;-80
2022/02/24 07:47:47;;;;;;;30.00;7.05;;;5.80;88.60;;;;;;6352286;22;20057;-80
2022/02/24 07:50:15;;;;;;;22.63;5.57;;;6.00;87.50;;;;;;6352089;22;20025;-80
2022/02/24 07:52:43;;;;;;;18.77;5.28;;;6.20;87.30;;;;;;6377862;22;20010;-79
2022/02/24 07:55:09;;;;;;;16.75;5.00;;;6.40;86.90;;;;;;6378022;22;19982;-79
2022/02/24 07:57:38;;;;;;;16.33;4.55;;;6.60;86.50;;;;;;6378259;22;20006;-80
2022/02/24 08:00:05;;;;;;;16.48;4.45;;;6.80;86.10;;;;;;6378516;22;20005;-80
2022/02/24 08:02:30;;;;;;;14.52;5.20;;;7.00;83.70;;;;;;6352568;22;20019;-80
2022/02/24 08:04:56;;;;;;;20.65;6.13;;;7.20;82.60;;;;;;6352020;22;20308;-80
2022/02/24 08:07:22;;;;;;;28.98;6.45;;;7.40;81.50;;;;;;6352547;22;20006;-80
2022/02/24 08:09:48;;;;;;;29.55;6.07;;;7.50;81.10;;;;;;6352254;22;20228;-80
2022/02/24 08:14:58;;;;;;;24.35;5.72;;;7.70;79.30;;;;;;6356551;22;20549;-80
2022/02/24 08:17:25;;;;;;;15.35;5.20;;;7.90;79.70;;;;;;6378752;22;20045;-80
2022/02/24 08:19:51;;;;;;;15.50;6.07;;;7.90;79.00;;;;;;6326094;22;20065;-80
2022/02/24 08:22:17;;;;;;;16.15;5.38;;;8.10;78.90;;;;;;6325677;22;20018;-80
2022/02/24 08:24:43;;;;;;;11.93;5.15;;;8.20;79.00;;;;;;6378108;22;20025;-79
2022/02/24 08:27:09;;;;;;;18.60;6.13;;;8.40;78.60;;;;;;6325695;22;20014;-79
2022/02/24 08:29:35;;;;;;;13.77;5.25;;;8.60;78.20;;;;;;6351129;22;20018;-79
2022/02/24 08:32:01;;;;;;;17.43;5.90;;;8.70;77.40;;;;;;6377339;22;20033;-80
2022/02/24 08:34:27;;;;;;;13.80;4.78;;;8.80;77.20;;;;;;6351833;22;20229;-79
2022/02/24 08:36:53;;;;;;;16.25;6.45;;;8.90;76.80;;;;;;6404184;22;20006;-80
2022/02/24 08:39:19;;;;;;;13.02;5.95;;;9.10;75.90;;;;;;6378286;22;20003;-80
2022/02/24 08:41:45;;;;;;;12.85;6.75;;;9.20;75.50;;;;;;6300334;22;20040;-80
2022/02/24 08:44:12;;;;;;;9.40;5.05;;;9.50;74.60;;;;;;6379579;22;20047;-80
2022/02/24 08:46:38;;;;;;;9.70;5.43;;;9.60;74.00;;;;;;6377848;22;20214;-80
2022/02/24 08:49:04;;;;;;;17.77;7.80;;;9.70;72.80;;;;;;6378221;22;20006;-80
2022/02/24 08:51:31;;;;;;;12.68;6.05;;;9.70;73.30;;;;;;6325988;22;20051;-78
2022/02/24 08:53:57;;;;;;;18.92;6.75;;;9.80;73.10;;;;;;6352356;22;20278;-79
2022/02/24 08:56:23;;;;;;;19.63;6.53;;;9.90;72.90;;;;;;6351925;22;20055;-79
2022/02/24 08:58:49;;;;;;;14.75;5.72;;;10.00;71.90;;;;;;6300253;22;20263;-80
2022/02/24 09:01:14;;;;;;;14.02;6.22;;;10.10;72.00;;;;;;6352370;22;20007;-80
2022/02/24 09:03:40;;;;;;;12.20;6.13;;;10.20;71.80;;;;;;6352098;22;20003;-80
2022/02/24 09:06:06;;;;;;;13.85;5.88;;;10.30;71.30;;;;;;6325418;22;20230;-80
2022/02/24 09:08:32;;;;;;;17.45;7.18;;;10.30;71.10;;;;;;6351740;22;20016;-80
2022/02/24 09:10:58;;;;;;;14.25;5.47;;;10.30;70.60;;;;;;6299105;22;20010;-79
2022/02/24 09:13:24;;;;;;;21.90;6.18;;;10.40;70.90;;;;;;6325078;22;20043;-80
2022/02/24 09:15:50;;;;;;;13.50;6.63;;;10.50;71.00;;;;;;6377158;22;20002;-79
2022/02/24 09:18:15;;;;;;;12.68;5.82;;;10.60;70.00;;;;;;6378222;22;20010;-80
2022/02/24 09:20:42;;;;;;;16.15;7.13;;;10.70;69.90;;;;;;6351056;22;20321;-80
2022/02/24 09:23:09;;;;;;;16.00;6.90;;;10.90;69.90;;;;;;6378061;22;20014;-80
2022/02/24 09:25:35;;;;;;;;;;;11.00;69.90;;;;;;6352298;22;20244;-80
2022/02/24 09:28:01;;;;;;;15.03;6.63;;;11.20;68.70;;;;;;6378037;22;19922;-80
2022/02/24 09:30:27;;;;;;;15.07;6.50;;;11.30;68.50;;;;;;6378954;22;20182;-80
2022/02/24 09:32:56;;;;;;;13.40;6.03;;;11.50;68.50;;;;;;6351332;22;20319;-80
2022/02/24 09:35:22;;;;;;;12.73;6.15;;;11.50;67.30;;;;;;6351508;22;20294;-80
2022/02/24 09:37:48;;;;;;;22.45;6.30;;;11.60;67.30;;;;;;6377628;22;20014;-81
2022/02/24 09:40:17;;;;;;;15.63;7.07;;;11.70;66.70;;;;;;6351231;22;20306;-80
2022/02/24 09:42:43;;;;;;;18.17;7.13;;;11.80;66.20;;;;;;6351368;22;20011;-80
2022/02/24 09:45:10;;;;;;;15.00;6.32;;;11.80;65.80;;;;;;6404384;22;20009;-80
2022/02/24 09:47:40;;;;;;;16.63;6.15;;;12.00;66.10;;;;;;6377569;22;20017;-80
2022/02/24 09:50:08;;;;;;;13.77;5.60;;;12.10;65.30;;;;;;6351384;22;20006;-80
2022/02/24 09:52:34;;;;;;;15.43;6.13;;;12.20;65.80;;;;;;6377964;22;20228;-80
2022/02/24 09:54:59;;;;;;;12.77;6.13;;;12.30;65.10;;;;;;6351387;22;20015;-81
2022/02/24 09:57:25;;;;;;;17.90;6.47;;;12.40;64.40;;;;;;6326065;22;20096;-80
2022/02/24 09:59:51;;;;;;;18.13;8.00;;;12.50;64.50;;;;;;6351657;22;20117;-81
2022/02/24 10:02:17;;;;;;;12.48;6.32;;;12.60;64.30;;;;;;6325596;22;19997;-81
2022/02/24 10:05:10;;;;;;;14.60;7.43;;;12.80;64.40;;;;;;6299933;22;20070;-81
2022/02/24 10:07:38;;;;;;;14.05;6.55;;;12.90;62.60;;;;;;6378089;22;20077;-81
2022/02/24 10:10:23;;;;;;;13.45;6.53;;;12.90;62.90;;;;;;6377896;22;20002;-81
2022/02/24 10:13:01;;;;;;;15.40;7.18;;;12.90;62.20;;;;;;6377671;22;20096;-81
2022/02/24 10:15:27;;;;;;;16.60;6.50;;;12.90;62.50;;;;;;6351297;22;20002;-81
2022/02/24 10:18:10;;;;;;;14.27;6.30;;;13.10;62.60;;;;;;6325522;22;20014;-81
2022/02/24 10:20:37;;;;;;;17.13;6.55;;;13.30;61.70;;;;;;6326245;22;20301;-79
2022/02/24 10:23:03;;;;;;;15.77;6.07;;;13.50;62.30;;;;;;6351563;22;20006;-80
2022/02/24 10:25:37;;;;;;;14.93;6.40;;;13.60;61.10;;;;;;6351636;22;20270;-80
2022/02/24 10:28:04;;;;;;;16.50;7.50;;;13.60;61.40;;;;;;6351697;22;20010;-80
2022/02/24 10:30:30;;;;;;;12.82;6.65;;;13.70;61.70;;;;;;6326384;22;20067;-80
2022/02/24 10:32:56;;;;;;;15.43;6.50;;;13.80;60.30;;;;;;6353058;22;20006;-80
2022/02/24 10:35:27;;;;;;;21.98;6.93;;;13.80;60.30;;;;;;6379941;22;20002;-80
2022/02/24 10:38:03;;;;;;;15.27;7.28;;;13.70;59.90;;;;;;6380012;22;20206;-80
2022/02/24 10:40:32;;;;;;;22.02;7.65;;;13.80;61.00;;;;;;6380243;22;20058;-80
2022/02/24 10:43:13;;;;;;;15.18;6.38;;;14.00;61.00;;;;;;6380281;22;20094;-81
2022/02/24 10:45:40;;;;;;;13.10;6.85;;;14.20;59.70;;;;;;6353851;22;20007;-80
2022/02/24 10:48:07;;;;;;;12.25;7.10;;;14.20;59.60;;;;;;6327278;22;20011;-80
2022/02/24 10:50:55;;;;;;;11.63;6.15;;;14.30;59.30;;;;;;6327235;22;20007;-80
2022/02/24 10:53:26;;;;;;;16.05;6.47;;;14.40;59.40;;;;;;6353353;22;20010;-80
2022/02/24 10:55:52;;;;;;;16.75;7.45;;;14.40;59.50;;;;;;6327469;22;20282;-80
2022/02/24 10:58:18;;;;;;;14.43;6.07;;;14.50;59.10;;;;;;6353930;22;20054;-80
2022/02/24 11:00:44;;;;;;;14.13;7.07;;;14.60;58.70;;;;;;6353933;22;20009;-80
2022/02/24 11:03:11;;;;;;;11.23;6.60;;;14.70;58.20;;;;;;6354049;22;20013;-80
2022/02/24 11:05:40;;;;;;;11.95;6.40;;;14.80;57.70;;;;;;6328078;22;20010;-80
2022/02/24 11:08:07;;;;;;;18.60;10.00;;;14.70;57.60;;;;;;6328669;22;20032;-80
2022/02/24 11:10:35;;;;;;;10.70;5.80;;;14.80;57.60;;;;;;6302193;22;20026;-80
2022/02/24 11:13:01;;;;;;;25.88;12.30;;;14.90;57.10;;;;;;6328138;22;20018;-80
2022/02/24 11:15:27;;;;;;;21.92;10.05;;;14.90;57.10;;;;;;6368577;22;20061;-81
2022/02/24 11:17:53;;;;;;;22.63;10.70;;;15.00;57.50;;;;;;6346127;22;20043;-80
2022/02/24 11:20:20;;;;;;;11.30;6.00;;;15.00;56.50;;;;;;6370872;22;20226;-80
2022/02/24 11:22:48;;;;;;;12.07;7.38;;;15.00;56.10;;;;;;6369569;22;20351;-80
2022/02/24 11:25:18;;;;;;;14.60;6.78;;;15.00;57.20;;;;;;6343524;22;20007;-81
2022/02/24 11:27:48;;;;;;;14.73;6.72;;;15.10;57.00;;;;;;6366993;22;20006;-81
2022/02/24 11:30:25;;;;;;;11.82;6.15;;;15.20;56.20;;;;;;6330837;22;20051;-81
2022/02/24 11:32:52;;;;;;;10.73;5.88;;;15.40;56.50;;;;;;6386984;22;20236;-79
2022/02/24 11:35:19;;;;;;;10.70;5.90;;;15.50;55.00;;;;;;6352797;22;20010;-80
2022/02/24 11:37:51;;;;;;;14.52;6.45;;;15.50;54.80;;;;;;6326713;22;20355;-81
2022/02/24 11:40:23;;;;;;;13.88;6.63;;;15.40;54.70;;;;;;6353017;22;20025;-80
2022/02/24 11:43:05;;;;;;;10.98;5.45;;;15.40;54.80;;;;;;6352634;22;20010;-81
2022/02/24 11:45:40;;;;;;;13.50;5.93;;;15.40;54.10;;;;;;6326384;22;20009;-81
2022/02/24 11:48:19;;;;;;;12.05;5.57;;;15.50;54.20;;;;;;6352661;22;20008;-81
2022/02/24 11:51:20;;;;;;;11.05;5.32;;;15.50;53.90;;;;;;6284137;22;20046;-81
2022/02/24 11:53:48;;;;;;;;;;;15.40;53.70;;;;;;6284432;22;20019;-80
2022/02/24 11:56:21;;;;;;;9.15;4.97;;;15.40;53.10;;;;;;6258283;22;19903;-80
2022/02/24 11:58:55;;;;;;;9.68;5.13;;;15.50;53.20;;;;;;6232283;22;20246;-80
2022/02/24 12:01:41;;;;;;;10.98;5.28;;;15.50;53.60;;;;;;6283653;22;20003;-81
2022/02/24 12:04:29;;;;;;;9.25;5.18;;;15.70;53.60;;;;;;6283563;22;20003;-81
2022/02/24 12:07:14;;;;;;;11.77;5.30;;;15.70;52.50;;;;;;6257641;22;20004;-81
2022/02/24 12:09:41;;;;;;;14.20;5.53;;;15.80;53.00;;;;;;6283581;22;20004;-81
2022/02/24 12:12:08;;;;;;;;;;;15.90;52.60;;;;;;6232949;22;20050;-81
2022/02/24 12:14:33;;;;;;;12.82;5.95;;;15.90;52.40;;;;;;6260971;22;19898;-81
2022/02/24 12:17:05;;;;;;;8.40;4.40;;;15.80;52.30;;;;;;6325743;22;20024;-82
2022/02/24 12:19:58;;;;;;;9.75;4.53;;;15.90;52.70;;;;;;6378901;22;20298;-82
2022/02/24 12:22:28;;;;;;;10.50;4.95;;;15.90;51.70;;;;;;6377412;22;20037;-81
2022/02/24 12:25:14;;;;;;;9.57;5.03;;;15.80;52.10;;;;;;6325586;22;20029;-81
2022/02/24 12:27:40;;;;;;;7.10;4.40;;;15.80;51.70;;;;;;6351749;22;20051;-81
2022/02/24 12:30:11;;;;;;;10.88;4.60;;;15.80;51.90;;;;;;6325238;22;20090;-82
2022/02/24 12:32:44;;;;;;;10.10;4.65;;;15.90;51.80;;;;;;6324857;22;20022;-81
2022/02/24 12:35:17;;;;;;;10.77;5.07;;;15.90;51.70;;;;;;6351401;22;20007;-81
2022/02/24 12:37:44;;;;;;;7.13;4.43;;;16.00;51.90;;;;;;6352143;22;20256;-81
2022/02/24 12:40:15;;;;;;;10.15;4.90;;;16.00;50.80;;;;;;6351294;22;20006;-81
2022/02/24 12:42:41;;;;;;;11.15;5.00;;;16.10;50.40;;;;;;6351242;22;20289;-81
2022/02/24 12:45:07;;;;;;;15.60;5.05;;;16.00;51.00;;;;;;6325210;22;19998;-81
2022/02/24 12:47:34;;;;;;;9.15;4.80;;;16.10;52.10;;;;;;6374301;22;20037;-80
2022/02/24 12:50:00;;;;;;;7.83;4.40;;;16.20;51.10;;;;;;6350833;22;20081;-81
2022/02/24 12:52:29;;;;;;;8.60;4.00;;;16.20;50.90;;;;;;6350872;22;20010;-81
2022/02/24 12:54:56;;;;;;;12.68;5.15;;;16.20;50.70;;;;;;6377027;22;20025;-81
2022/02/24 12:57:24;;;;;;;10.70;4.10;;;16.30;50.70;;;;;;6324678;22;20010;-81
2022/02/24 12:59:50;;;;;;;7.70;4.65;;;16.30;50.00;;;;;;6325548;22;20033;-81
2022/02/24 13:02:17;;;;;;;13.25;4.70;;;16.30;50.20;;;;;;6351346;22;20087;-80
2022/02/24 13:04:44;;;;;;;9.63;5.00;;;16.20;50.30;;;;;;6325349;22;20006;-80
2022/02/24 13:09:42;;;;;;;17.63;5.13;;;16.20;50.40;;;;;;6350998;22;20006;-81
2022/02/24 13:10:00;;;;;;;10.95;4.57;;;16.30;50.00;;;;;;6334028;22;20010;-81
2022/02/24 13:12:25;;;;;;;18.98;7.55;;;16.20;49.50;;;;;;6351021;22;20015;-81
2022/02/24 13:14:51;;;;;;;11.60;5.70;;;16.20;49.60;;;;;;6377338;22;20294;-81
2022/02/24 13:17:25;;;;;;;10.55;6.80;;;16.20;48.90;;;;;;6350778;22;20055;-81
2022/02/24 13:19:52;;;;;;;8.27;5.18;;;16.10;49.00;;;;;;6350868;22;20073;-81
2022/02/24 13:22:21;;;;;;;11.00;5.43;;;16.10;48.60;;;;;;6351163;22;20010;-81
2022/02/24 13:24:49;;;;;;;18.05;9.05;;;16.10;49.40;;;;;;6376968;22;20030;-81
2022/02/24 13:27:22;;;;;;;11.30;6.53;;;16.20;50.00;;;;;;6350823;22;20006;-81
2022/02/24 13:29:50;;;;;;;12.45;5.45;;;16.20;49.40;;;;;;6350718;22;20057;-80
2022/02/24 13:32:27;;;;;;;9.15;5.22;;;16.20;49.40;;;;;;6350919;22;20074;-80
2022/02/24 13:34:57;;;;;;;7.80;4.60;;;16.10;49.10;;;;;;6376846;22;20084;-81
2022/02/24 13:37:32;;;;;;;9.95;5.28;;;16.10;49.70;;;;;;6351359;22;20006;-80
2022/02/24 13:40:06;;;;;;;12.48;4.75;;;16.10;49.50;;;;;;6350709;22;20041;-81
2022/02/24 13:42:32;;;;;;;10.82;4.15;;;16.20;49.40;;;;;;6377075;22;20020;-80
2022/02/24 13:44:58;;;;;;;8.20;3.33;;;16.20;49.40;;;;;;6376934;22;20029;-80
2022/02/24 13:47:24;;;;;;;17.05;4.78;;;16.30;49.50;;;;;;6324484;22;20317;-80
2022/02/24 13:49:50;;;;;;;12.68;4.30;;;16.40;49.20;;;;;;6324693;22;20018;-81
2022/02/24 13:52:37;;;;;;;7.60;4.45;;;16.40;49.30;;;;;;6350362;22;20033;-81
2022/02/24 13:55:09;;;;;;;7.47;4.53;;;16.50;48.90;;;;;;6377552;22;20002;-81
2022/02/24 13:57:52;;;;;;;8.98;4.13;;;16.50;48.60;;;;;;6377269;22;20020;-81
2022/02/24 14:00:27;;;;;;;13.23;4.07;;;16.40;48.60;;;;;;6377370;22;20040;-81
2022/02/24 14:02:57;;;;;;;10.02;4.55;;;16.40;48.60;;;;;;6351456;22;20002;-81
2022/02/24 14:05:23;;;;;;;10.95;4.43;;;16.40;48.10;;;;;;6351536;22;20060;-81
2022/02/24 14:08:01;;;;;;;11.38;3.97;;;16.20;48.20;;;;;;6352932;22;19994;-81
2022/02/24 14:10:28;;;;;;;7.85;4.40;;;16.10;48.70;;;;;;6379683;22;20002;-81
2022/02/24 14:12:54;;;;;;;7.85;4.68;;;16.00;48.80;;;;;;6353173;22;20006;-81
2022/02/24 14:15:19;;;;;;;7.78;4.00;;;15.90;49.20;;;;;;6352935;22;20007;-81
2022/02/24 14:17:45;;;;;;;9.68;4.10;;;15.90;48.50;;;;;;6353179;22;20061;-81
2022/02/24 14:20:23;;;;;;;9.43;4.60;;;16.00;49.10;;;;;;6379456;22;20029;-82
2022/02/24 14:22:50;;;;;;;7.07;3.90;;;16.10;48.60;;;;;;6379471;22;20202;-82
2022/02/24 14:25:16;;;;;;;7.15;4.07;;;16.10;48.40;;;;;;6379824;22;19998;-82
2022/02/24 14:27:42;;;;;;;6.55;4.03;;;16.10;48.30;;;;;;6301571;22;20198;-82
2022/02/24 14:30:09;;;;;;;14.00;4.22;;;16.00;49.30;;;;;;6326993;22;20250;-82
2022/02/24 14:32:38;;;;;;;10.73;4.65;;;15.90;48.60;;;;;;6353004;22;20002;-82
2022/02/24 14:35:06;;;;;;;11.88;5.35;;;15.80;48.40;;;;;;6378829;22;20026;-81
2022/02/24 14:37:32;;;;;;;9.77;4.30;;;15.80;48.20;;;;;;6326505;22;20282;-82
2022/02/24 14:39:59;;;;;;;12.03;4.50;;;15.80;49.10;;;;;;6378605;22;20298;-81
2022/02/24 14:42:28;;;;;;;6.05;3.83;;;15.70;48.70;;;;;;6378417;22;20357;-81
2022/02/24 14:44:58;;;;;;;8.55;3.67;;;15.70;48.70;;;;;;6352432;22;20017;-81
2022/02/24 14:47:25;;;;;;;7.72;4.15;;;15.70;48.90;;;;;;6351744;22;20089;-81
2022/02/24 14:49:51;;;;;;;7.77;4.27;;;15.70;48.80;;;;;;6378120;22;20007;-81
2022/02/24 14:52:17;;;;;;;6.68;4.22;;;15.60;48.90;;;;;;6378664;22;20007;-81
2022/02/24 14:54:43;;;;;;;6.20;4.00;;;15.60;48.90;;;;;;6326079;22;20029;-81
2022/02/24 14:57:10;;;;;;;6.97;4.18;;;15.50;49.40;;;;;;6378271;22;20014;-81
2022/02/24 14:59:37;;;;;;;8.90;4.10;;;15.50;49.50;;;;;;6352045;22;20021;-81
2022/02/24 15:02:04;;;;;;;;;;;15.40;49.50;;;;;;6378539;22;20198;-82
2022/02/24 15:04:29;;;;;;;10.50;4.63;;;15.30;49.90;;;;;;6378509;22;19984;-81
2022/02/24 15:06:55;;;;;;;15.65;7.45;;;15.30;49.80;;;;;;6325991;22;20010;-81
2022/02/24 15:09:21;;;;;;;17.92;7.05;;;15.30;49.90;;;;;;6378320;22;20006;-82
2022/02/24 15:11:47;;;;;;;24.08;11.27;;;15.30;50.30;;;;;;6351409;22;20316;-81
2022/02/24 15:14:15;;;;;;;8.40;4.43;;;15.30;50.40;;;;;;6351192;22;20187;-81
2022/02/24 15:16:42;;;;;;;10.10;4.18;;;15.20;50.20;;;;;;6351287;22;20002;-81
2022/02/24 15:19:08;;;;;;;8.63;4.25;;;15.10;50.60;;;;;;6351964;22;20003;-81
2022/02/24 15:21:33;;;;;;;8.50;4.93;;;15.10;50.90;;;;;;6352458;22;20194;-82
2022/02/24 15:24:00;;;;;;;10.32;4.30;;;15.00;51.00;;;;;;6326581;22;20026;-82
2022/02/24 15:26:26;;;;;;;13.38;4.57;;;14.90;51.00;;;;;;6300734;22;20010;-82
2022/02/24 15:28:52;;;;;;;8.27;4.10;;;14.90;51.20;;;;;;6351969;22;20017;-81
2022/02/24 15:31:18;;;;;;;10.55;4.00;;;14.90;51.30;;;;;;6351862;22;20069;-82
2022/02/24 15:33:43;;;;;;;6.90;3.60;;;14.90;51.70;;;;;;6351736;22;20007;-81
2022/02/24 15:36:09;;;;;;;8.43;4.15;;;14.80;51.70;;;;;;6299931;22;20036;-81
2022/02/24 15:38:35;;;;;;;8.05;4.47;;;14.80;51.60;;;;;;6351633;22;19999;-81
2022/02/24 15:41:01;;;;;;;9.88;3.70;;;14.70;52.10;;;;;;6351386;22;20009;-82
2022/02/24 15:43:27;;;;;;;5.53;3.05;;;14.60;52.50;;;;;;6351203;22;20037;-81
2022/02/24 15:45:54;;;;;;;13.52;3.97;;;14.60;52.70;;;;;;6325871;22;20021;-82
2022/02/24 15:48:20;;;;;;;8.68;3.13;;;14.50;53.10;;;;;;6352311;22;20210;-82
2022/02/24 15:50:46;;;;;;;9.88;3.60;;;14.40;53.20;;;;;;6352056;22;20025;-82
2022/02/24 15:53:12;;;;;;;11.45;3.83;;;14.40;53.70;;;;;;6378848;22;20013;-82
2022/02/24 15:55:38;;;;;;;11.63;5.28;;;14.30;53.80;;;;;;6352646;22;19999;-82
2022/02/24 15:58:05;;;;;;;18.38;8.50;;;14.30;53.90;;;;;;6379968;22;20217;-82
2022/02/24 16:00:32;;;;;;;23.27;8.93;;;14.20;54.00;;;;;;6379034;22;20036;-82
2022/02/24 16:02:58;;;;;;;21.42;9.85;;;14.10;54.20;;;;;;6378057;22;20002;-83
2022/02/24 16:05:24;;;;;;;11.07;7.00;;;14.10;54.30;;;;;;6352632;22;20347;-82
2022/02/24 16:07:50;;;;;;;11.32;5.47;;;14.00;54.50;;;;;;6352445;22;20006;-82
2022/02/24 16:10:17;;;;;;;9.65;5.30;;;14.00;54.60;;;;;;6378714;22;20197;-82
2022/02/24 16:12:43;;;;;;;13.23;5.33;;;13.90;54.80;;;;;;6352531;22;20039;-82
2022/02/24 16:15:10;;;;;;;12.68;5.22;;;13.80;55.10;;;;;;6352360;22;20010;-82
2022/02/24 16:17:36;;;;;;;13.43;5.30;;;13.70;55.30;;;;;;6352362;22;19991;-83
2022/02/24 16:20:04;;;;;;;7.87;4.13;;;13.60;55.50;;;;;;6352495;22;20002;-82
2022/02/24 16:22:30;;;;;;;7.50;3.30;;;13.50;55.50;;;;;;6352209;22;20276;-82
2022/02/24 16:24:57;;;;;;;14.73;3.50;;;13.40;55.60;;;;;;6352709;22;20037;-82
2022/02/24 16:27:23;;;;;;;10.02;3.72;;;13.40;55.60;;;;;;6378400;22;20006;-82
2022/02/24 16:29:49;;;;;;;15.50;4.13;;;13.30;55.80;;;;;;6378185;22;19986;-82
2022/02/24 16:32:15;;;;;;;14.63;4.07;;;13.30;55.80;;;;;;6326431;22;20324;-82
2022/02/24 16:34:41;;;;;;;12.70;4.90;;;13.20;55.90;;;;;;6300742;22;20006;-82